createdAt,value
2022-08-26T11:20:33.170Z,99967.86
2022-08-26T11:22:47.417Z,99969.48
2022-08-26T11:24:52.498Z,99969.41
2022-08-26T11:26:57.893Z,99964.88
2022-08-26T11:29:04.240Z,99960.51
2022-08-26T11:31:17.992Z,99966.73
2022-08-26T11:33:24.600Z,99957.38
2022-08-26T11:35:29.226Z,99949.37
2022-08-26T11:37:35.727Z,99947.08
2022-08-26T11:39:53.926Z,99951.52
2022-08-26T11:42:00.836Z,99949.48
2022-08-26T11:44:05.856Z,99949.7
2022-08-26T11:46:11.456Z,99950.42
2022-08-26T11:48:16.206Z,99952.03
2022-08-26T11:50:20.823Z,99947.25
2022-08-26T11:52:26.992Z,99944.14
2022-08-26T11:54:36.821Z,99940.19
2022-08-26T11:56:41.795Z,99942.25
2022-08-26T11:58:46.371Z,99936.7
2022-08-26T12:00:50.906Z,99930.45
2022-08-26T12:02:56.640Z,99927.66
2022-08-26T12:05:01.505Z,99925.94
2022-08-26T12:07:09.701Z,99926.89
2022-08-26T12:09:14.292Z,99932.58
2022-08-26T12:11:23.423Z,99923.94
2022-08-26T12:13:28.964Z,99920.69
2022-08-26T12:15:36.590Z,99924.3
2022-08-26T12:17:41.844Z,99918.64
2022-08-26T12:19:46.513Z,99913.95
2022-08-26T12:21:51.032Z,99916.42
2022-08-26T12:23:56.136Z,99908.33
2022-08-26T12:26:01.083Z,99905.06
2022-08-26T12:28:07.699Z,99905.88
2022-08-26T12:30:15.149Z,99911.75
2022-08-26T12:32:25.617Z,99907.98
2022-08-26T12:34:32.054Z,99906.34
2022-08-26T12:36:37.119Z,99902.64
2022-08-26T12:38:41.939Z,99904.75
2022-08-26T12:40:46.665Z,99898.66
2022-08-26T12:42:51.496Z,99897.72
2022-08-26T12:44:56.321Z,99884.41
2022-08-26T12:47:01.056Z,99888.38
2022-08-26T12:49:05.895Z,99893.79
2022-08-26T12:51:10.697Z,99884.73
2022-08-26T12:53:15.417Z,99883.32
2022-08-26T12:55:20.243Z,99880.53
2022-08-26T12:57:24.914Z,99875.6
2022-08-26T12:59:29.687Z,99869.39
2022-08-26T13:01:34.778Z,99868.26
2022-08-26T13:03:39.648Z,99867.28
2022-08-26T13:05:44.306Z,99867.11
2022-08-26T13:07:49.114Z,99864.42
2022-08-26T13:09:53.823Z,99862.81
2022-08-26T13:11:58.444Z,99866.28
2022-08-26T13:14:08.394Z,99857.83
2022-08-26T13:16:13.930Z,99858.91
2022-08-26T13:18:18.764Z,99857.8
2022-08-26T13:20:23.586Z,99854.88
2022-08-26T13:22:28.410Z,99856.39
2022-08-26T13:24:33.240Z,99848.8
2022-08-26T13:26:37.964Z,99847.77
2022-08-26T13:28:42.523Z,99845.31
2022-08-26T13:30:47.311Z,99831.8
2022-08-26T13:32:52.132Z,99833.58
2022-08-26T13:34:58.695Z,99829.11
2022-08-26T13:37:09.568Z,99825.88
2022-08-26T13:39:14.290Z,99816.25
2022-08-26T13:41:30.074Z,99818.09
2022-08-26T13:43:34.805Z,99825.59
2022-08-26T13:45:39.627Z,99818.4
2022-08-26T13:47:44.451Z,99819.67
2022-08-26T13:49:49.278Z,99816.03
2022-08-26T13:51:53.915Z,99810.2
2022-08-26T13:53:58.723Z,99807.89
2022-08-26T13:56:05.930Z,99802.3
2022-08-26T13:58:14.631Z,99806.31
2022-08-26T14:00:20.372Z,99806.34
2022-08-26T14:02:25.099Z,99803.98
2022-08-26T14:04:29.823Z,99797.67
2022-08-26T14:06:34.647Z,99797.34
2022-08-26T14:08:39.480Z,99795.82
2022-08-26T14:10:44.246Z,99788.71
2022-08-26T14:12:49.019Z,99793.64
2022-08-26T14:14:53.950Z,99792.52
2022-08-26T14:17:01.368Z,99793
2022-08-26T14:19:06.157Z,99792.36
2022-08-26T14:21:10.987Z,99786.28
2022-08-26T14:23:15.932Z,99787.88
2022-08-26T14:25:20.743Z,99786.9
2022-08-26T14:27:25.505Z,99783.36
2022-08-26T14:29:30.291Z,99788.97
2022-08-26T14:31:35.056Z,99788.47
2022-08-26T14:33:40.055Z,99790.77
2022-08-26T14:35:50.187Z,99784.58
2022-08-26T14:37:54.836Z,99791.17
2022-08-26T14:39:59.697Z,99792.94
2022-08-26T14:42:04.959Z,99797
2022-08-26T14:44:10.009Z,99792.89
2022-08-26T14:46:16.321Z,99790.7
2022-08-26T14:48:21.774Z,99793.05
2022-08-26T14:50:26.542Z,99783.07
2022-08-26T14:52:31.284Z,99787.13
2022-08-26T14:54:35.991Z,99784.39
2022-08-26T14:56:40.715Z,99787.41
2022-08-26T14:58:45.544Z,99782.02
2022-08-26T15:00:50.310Z,99784.9
2022-08-26T15:02:55.382Z,99782.55
2022-08-26T15:05:00.425Z,99780.08
2022-08-26T15:07:05.252Z,99771.28
2022-08-26T15:09:09.975Z,99769
2022-08-26T15:11:14.841Z,99771.58
2022-08-26T15:13:19.632Z,99769.39
2022-08-26T15:15:24.453Z,99773.98
2022-08-26T15:17:29.174Z,99770.13
2022-08-26T15:19:33.999Z,99767.06
2022-08-26T15:21:38.831Z,99767.79
2022-08-26T15:23:48.880Z,99764.51
2022-08-26T15:25:53.600Z,99765.08
2022-08-26T15:27:58.330Z,99767.66
2022-08-26T15:30:02.863Z,99761.94
2022-08-26T15:32:07.487Z,99763.09
2022-08-26T15:34:17.344Z,99761.16
2022-08-26T15:36:22.133Z,99755.59
2022-08-26T15:38:26.860Z,99752.73
2022-08-26T15:40:31.880Z,99752.09
2022-08-26T15:42:36.610Z,99750.88
2022-08-26T15:44:41.334Z,99755.3
2022-08-26T15:46:46.348Z,99757.74
2022-08-26T15:48:51.199Z,99753.38
2022-08-26T15:50:55.834Z,99749.56
2022-08-26T15:53:00.542Z,99750.59
2022-08-26T15:55:05.368Z,99748.73
2022-08-26T15:57:15.296Z,99742.22
2022-08-26T15:59:23.719Z,99741.88
2022-08-26T16:01:29.189Z,99745.31
2022-08-26T16:03:33.990Z,99743.6
2022-08-26T16:05:39.049Z,99742.67
2022-08-26T16:07:43.953Z,99740.11
2022-08-26T16:09:55.326Z,99738.79
2022-08-26T16:12:00.150Z,99737.69
2022-08-26T16:14:04.882Z,99740.05
2022-08-26T16:16:09.772Z,99737.94
2022-08-26T16:18:14.847Z,99741.02
2022-08-26T16:20:19.565Z,99739.4
2022-08-26T16:22:24.867Z,99735.91
2022-08-26T16:24:36.989Z,99731.72
2022-08-26T16:26:42.759Z,99728.1
2022-08-26T16:28:47.392Z,99726.75
2022-08-26T16:30:52.504Z,99726.16
2022-08-26T16:32:57.108Z,99731.2
2022-08-26T16:35:01.826Z,99727.95
2022-08-26T16:37:06.467Z,99727.94
2022-08-26T16:39:11.150Z,99721.64
2022-08-26T16:41:16.024Z,99729.7
2022-08-26T16:43:20.838Z,99726.27
2022-08-26T16:45:25.570Z,99723.63
2022-08-26T16:47:30.287Z,99726.55
2022-08-26T16:49:35.047Z,99725.53
2022-08-26T16:51:39.837Z,99722.23
2022-08-26T16:53:44.566Z,99720.91
2022-08-26T16:55:49.183Z,99721.7
2022-08-26T16:57:54.015Z,99721.69
2022-08-26T16:59:58.931Z,99721.34
2022-08-26T17:02:03.889Z,99722.78
2022-08-26T17:04:08.690Z,99721.13
2022-08-26T17:06:13.413Z,99718.73
2022-08-26T17:08:29.920Z,99719.91
2022-08-26T17:10:34.871Z,99723.47
2022-08-26T17:12:39.772Z,99727.01
2022-08-26T17:14:46.956Z,99725.94
2022-08-26T17:16:51.677Z,99727.67
2022-08-26T17:18:56.508Z,99724.13
2022-08-26T17:21:01.166Z,99727.73
2022-08-26T17:23:06.033Z,99729.52
2022-08-26T17:25:10.906Z,99727.69
2022-08-26T17:27:15.490Z,99732.72
2022-08-26T17:29:19.973Z,99727.45
2022-08-26T17:31:25.785Z,99729.3
2022-08-26T17:33:30.577Z,99723.86
2022-08-26T17:35:35.716Z,99724.17
2022-08-26T17:37:40.236Z,99719.87
2022-08-26T17:39:44.847Z,99715.73
2022-08-26T17:41:49.469Z,99716.08
2022-08-26T17:43:53.989Z,99720.7
2022-08-26T17:46:07.328Z,99720.06
2022-08-26T17:48:12.698Z,99717.42
2022-08-26T17:50:17.157Z,99714.38
2022-08-26T17:52:21.664Z,99716.36
2022-08-26T17:54:26.315Z,99716.53
2022-08-26T17:56:34.708Z,99717.73
2022-08-26T17:58:39.223Z,99723
2022-08-26T18:00:43.974Z,99722.95
2022-08-26T18:02:48.485Z,99724.53
2022-08-26T18:04:52.998Z,99731.58
2022-08-26T18:06:57.531Z,99733.23
2022-08-26T18:09:02.041Z,99733.91
2022-08-26T18:11:06.544Z,99736.77
2022-08-26T18:13:11.488Z,99732.66
2022-08-26T18:15:16.007Z,99731.56
2022-08-26T18:17:20.662Z,99726.44
2022-08-26T18:19:25.153Z,99726.25
2022-08-26T18:21:29.592Z,99724.05
2022-08-26T18:23:34.188Z,99726.27
2022-08-26T18:25:38.712Z,99725.23
2022-08-26T18:27:43.229Z,99720.59
2022-08-26T18:29:47.847Z,99715.59
2022-08-26T18:31:52.364Z,99716.57
2022-08-26T18:33:56.958Z,99720.66
2022-08-26T18:36:01.505Z,99727.51
2022-08-26T18:38:12.358Z,99728.77
2022-08-26T18:40:18.150Z,99729.3
2022-08-26T18:42:22.839Z,99731.98
2022-08-26T18:44:27.366Z,99733.53
2022-08-26T18:46:32.058Z,99735.91
2022-08-26T18:48:36.602Z,99740.84
2022-08-26T18:50:41.811Z,99745.7
2022-08-26T18:52:50.821Z,99744.36
2022-08-26T18:54:55.253Z,99744.79
2022-08-26T18:57:01.745Z,99747.84
2022-08-26T18:59:06.372Z,99751.66
2022-08-26T19:01:11.300Z,99752.34
2022-08-26T19:03:20.214Z,99757.44
2022-08-26T19:05:25.498Z,99759.44
2022-08-26T19:07:29.942Z,99762.31
2022-08-26T19:09:34.587Z,99764.66
2022-08-26T19:11:44.274Z,99765.57
2022-08-26T19:13:51.721Z,99766.79
2022-08-26T19:15:56.232Z,99771.38
2022-08-26T19:18:00.715Z,99772.91
2022-08-26T19:20:05.271Z,99776.52
2022-08-26T19:22:09.893Z,99781.59
2022-08-26T19:24:14.412Z,99781.31
2022-08-26T19:26:19.128Z,99784.59
2022-08-26T19:28:23.755Z,99781.45
2022-08-26T19:30:31.285Z,99784.55
2022-08-26T19:32:36.747Z,99783.58
2022-08-26T19:34:41.204Z,99783.41
2022-08-26T19:36:47.864Z,99783.94
2022-08-26T19:38:52.391Z,99788.5
2022-08-26T19:40:56.905Z,99786.82
2022-08-26T19:43:01.421Z,99789.88
2022-08-26T19:45:06.052Z,99793.66
2022-08-26T19:47:12.833Z,99795.33
2022-08-26T19:49:17.432Z,99800.03
2022-08-26T19:51:22.157Z,99802.63
2022-08-26T19:53:26.672Z,99803.05
2022-08-26T19:55:31.193Z,99802.93
2022-08-26T19:57:35.711Z,99805.96
2022-08-26T19:59:40.232Z,99802.19
2022-08-26T20:01:44.762Z,99799.61
2022-08-26T20:03:58.796Z,99796.41
2022-08-26T20:06:03.397Z,99792.52
2022-08-26T20:08:16.809Z,99785.61
2022-08-26T20:10:26.963Z,99780.39
2022-08-26T20:12:31.620Z,99775.64
2022-08-26T20:14:36.331Z,99769.11
2022-08-26T20:16:41.114Z,99763.73
2022-08-26T20:18:45.769Z,99765.47
2022-08-26T20:20:50.299Z,99772.08
2022-08-26T20:22:55.035Z,99781.02
2022-08-26T20:24:59.760Z,99781.45
2022-08-26T20:27:08.987Z,99783.52
2022-08-26T20:29:13.834Z,99785.49
2022-08-26T20:31:18.748Z,99779.27
2022-08-26T20:33:23.579Z,99784.36
2022-08-26T20:35:28.393Z,99785.16
2022-08-26T20:37:33.221Z,99783.36
2022-08-26T20:39:38.043Z,99787.45
2022-08-26T20:41:45.329Z,99788.09
2022-08-26T20:43:50.053Z,99787.16
2022-08-26T20:45:55.001Z,99786.8
2022-08-26T20:47:59.802Z,99791.05
2022-08-26T20:50:04.529Z,99794.83
2022-08-26T20:52:09.284Z,99797.52
2022-08-26T20:54:14.588Z,99797.7
2022-08-26T20:56:19.357Z,99794.83
2022-08-26T20:58:24.146Z,99794.79
2022-08-26T21:00:29.854Z,99796.25
2022-08-26T21:02:34.707Z,99801.97
2022-08-26T21:04:39.613Z,99802.3
2022-08-26T21:06:53.577Z,99803.44
2022-08-26T21:08:59.925Z,99800.2
2022-08-26T21:11:07.530Z,99793.86
2022-08-26T21:13:14.056Z,99791.33
2022-08-26T21:15:18.929Z,99783.08
2022-08-26T21:17:23.748Z,99778.71
2022-08-26T21:19:28.445Z,99778.56
2022-08-26T21:21:33.208Z,99776.65
2022-08-26T21:23:37.924Z,99780.23
2022-08-26T21:25:45.311Z,99781.86
2022-08-26T21:27:50.034Z,99785.88
2022-08-26T21:29:54.775Z,99788.88
2022-08-26T21:31:59.712Z,99790.02
2022-08-26T21:34:04.507Z,99792.2
2022-08-26T21:36:09.271Z,99787.2
2022-08-26T21:38:14.058Z,99781.89
2022-08-26T21:40:18.942Z,99786.48
2022-08-26T21:42:24.130Z,99785.76
2022-08-26T21:44:28.848Z,99784.62
2022-08-26T21:46:33.574Z,99780.23
2022-08-26T21:48:38.398Z,99778.28
2022-08-26T21:50:43.221Z,99782.81
2022-08-26T21:52:48.045Z,99782.23
2022-08-26T21:54:53.591Z,99778.66
2022-08-26T21:56:58.256Z,99772.25
2022-08-26T21:59:03.038Z,99763.67
2022-08-26T22:01:07.791Z,99758.8
2022-08-26T22:03:12.592Z,99752.36
2022-08-26T22:05:17.419Z,99746.92
2022-08-26T22:07:22.140Z,99750.8
2022-08-26T22:09:26.964Z,99752.79
2022-08-26T22:11:31.801Z,99752.56
2022-08-26T22:13:36.520Z,99758.38
2022-08-26T22:15:41.147Z,99757.74
2022-08-26T22:17:45.857Z,99749.52
2022-08-26T22:19:50.607Z,99742.38
2022-08-26T22:21:56.639Z,99737.02
2022-08-26T22:24:01.360Z,99736.32
2022-08-26T22:26:06.110Z,99733.38
2022-08-26T22:28:11.367Z,99734.08
2022-08-26T22:30:16.045Z,99739.48
2022-08-26T22:32:20.870Z,99735.09
2022-08-26T22:34:25.696Z,99739.98
2022-08-26T22:36:30.522Z,99740.85
2022-08-26T22:38:35.350Z,99744.06
2022-08-26T22:40:39.991Z,99738.41
2022-08-26T22:43:00.423Z,99737.66
2022-08-26T22:45:06.825Z,99737.81
2022-08-26T22:47:11.449Z,99736.03
2022-08-26T22:49:17.300Z,99738.16
2022-08-26T22:51:22.024Z,99740.73
2022-08-26T22:53:26.854Z,99736.73
2022-08-26T22:55:31.580Z,99739.64
2022-08-26T22:57:36.291Z,99732.48
2022-08-26T22:59:43.584Z,99731.17
2022-08-26T23:01:48.302Z,99726.44
2022-08-26T23:03:53.133Z,99727.89
2022-08-26T23:05:57.754Z,99723.84
2022-08-26T23:08:02.654Z,99726.19
2022-08-26T23:10:07.508Z,99725.55
2022-08-26T23:12:12.340Z,99727.33
2022-08-26T23:14:17.103Z,99724.42
2022-08-26T23:16:22.005Z,99723.45
2022-08-26T23:18:26.914Z,99724.41
2022-08-26T23:20:31.739Z,99730.38
2022-08-26T23:22:36.568Z,99732.83
2022-08-26T23:24:41.289Z,99734.61
2022-08-26T23:26:46.056Z,99732.84
2022-08-26T23:28:50.837Z,99728.67
2022-08-26T23:30:55.674Z,99730.34
2022-08-26T23:33:00.518Z,99728.84
2022-08-26T23:35:05.420Z,99729.28
2022-08-26T23:37:10.055Z,99725.97
2022-08-26T23:39:14.762Z,99728.48
2022-08-26T23:41:19.590Z,99722.52
2022-08-26T23:43:24.365Z,99717.34
2022-08-26T23:45:29.285Z,99716.31
2022-08-26T23:47:34.075Z,99720.98
2022-08-26T23:49:38.823Z,99720.35
2022-08-26T23:51:47.204Z,99721.95
2022-08-26T23:53:53.066Z,99721.38
2022-08-26T23:55:57.884Z,99720.13
2022-08-26T23:58:02.704Z,99717.09
